Terminal Aerodrome Forecast
Issued by NWS Shreveport, LA

Home | Current Version | Previous Version | Text Only | Print | Product List | Glossary On
Versions: 1 2 3 4 5 6 7 8 9 10 11 12 13 14 15 16 17 18 19 20 21 22 23 24 25
192
FTUS44 KSHV 301743
TAFELD
TAF
KELD 301743Z 3018/0118 20008KT P6SM SCT050 OVC100
     FM010300 17004KT P6SM BKN050
     FM010900 VRB03KT 4SM BR BKN015
      TEMPO 0110/0114 1SM BR OVC007
     FM011600 07005KT P6SM SCT020=

USA.gov is the U.S. government's official web portal to all federal, state and local government web resources and services.